Terminal Aerodrome Forecast
Issued by NWS

Home | Current Version | Previous Version | Text Only | Print | Product List | Glossary On
Versions: 1 2 3 4 5 6 7 8 9 10 11 12
808
FTUS42 TJSJ 141747
TAFJSJ
TAF
TJSJ 141747Z 1418/1518 07014KT P6SM VCSH SCT025 SCT030 SCT050
     FM142300 08007KT P6SM VCSH SCT025 SCT035 SCT100
     FM151400 09015KT P6SM SCT025 SCT050=

USA.gov is the U.S. government's official web portal to all federal, state and local government web resources and services.